Aviation Digital Data Service (ADDS)

Output produced by METARs form (1805 UTC 26 September 2021)
found at http://www.aviationweather.gov/metar/data/
 
METAR text: KCCR 261753Z 23009KT 10SM FU CLR 20/11 A3002 RMK AO2 SLP152 T02000111 10200 20156 51005
Conditions at: KCCR (CONCORD , CA, US) observed 1753 UTC 26 September 2021
Temperature: 20.0°C (68°F)
Dewpoint: 11.1°C (52°F) [RH = 57%]
Pressure (altimeter): 30.02 inches Hg (1016.7 mb)
[Sea-level pressure: 1015.2 mb]
Winds: from the SW (230 degrees) at 10 MPH (9 knots; 4.6 m/s)
Visibility: 10 or more miles (16+ km)
Ceiling: at least 12,000 feet AGL
Clouds: sky clear below 12,000 feet AGL
Weather: FU  (smoke)

METAR text: KCCR 261653Z 18010KT 10SM FU CLR 18/11 A3002 RMK AO2 SLP151 T01830111
Conditions at: KCCR (CONCORD , CA, US) observed 1653 UTC 26 September 2021
Temperature: 18.3°C (65°F)
Dewpoint: 11.1°C (52°F) [RH = 63%]
Pressure (altimeter): 30.02 inches Hg (1016.7 mb)
[Sea-level pressure: 1015.1 mb]
Winds: from the S (180 degrees) at 12 MPH (10 knots; 5.1 m/s)
Visibility: 10 or more miles (16+ km)
Ceiling: at least 12,000 feet AGL
Clouds: sky clear below 12,000 feet AGL
Weather: FU  (smoke)

METAR text: KCCR 261608Z 25006KT 10SM FU SCT017 17/11 A3001 RMK AO2 T01670111
Conditions at: KCCR (CONCORD , CA, US) observed 1608 UTC 26 September 2021
Temperature: 16.7°C (62°F)
Dewpoint: 11.1°C (52°F) [RH = 70%]
Pressure (altimeter): 30.01 inches Hg (1016.3 mb)
Winds: from the WSW (250 degrees) at 7 MPH (6 knots; 3.1 m/s)
Visibility: 10 or more miles (16+ km)
Ceiling: at least 12,000 feet AGL
Clouds: scattered clouds at 1700 feet AGL
Weather: FU  (smoke)

METAR text: KCCR 261553Z 22006KT 10SM FU BKN017 16/11 A3001 RMK AO2 SLP150 T01610111
Conditions at: KCCR (CONCORD , CA, US) observed 1553 UTC 26 September 2021
Temperature: 16.1°C (61°F)
Dewpoint: 11.1°C (52°F) [RH = 72%]
Pressure (altimeter): 30.01 inches Hg (1016.3 mb)
[Sea-level pressure: 1015.0 mb]
Winds: from the SW (220 degrees) at 7 MPH (6 knots; 3.1 m/s)
Visibility: 10 or more miles (16+ km)
Ceiling: 1700 feet AGL
Clouds: broken clouds at 1700 feet AGL
Weather: FU  (smoke)

METAR text: KCCR 261453Z 26010KT 10SM FU OVC016 16/11 A3001 RMK AO2 SLP147 T01560111 51005
Conditions at: KCCR (CONCORD , CA, US) observed 1453 UTC 26 September 2021
Temperature: 15.6°C (60°F)
Dewpoint: 11.1°C (52°F) [RH = 75%]
Pressure (altimeter): 30.01 inches Hg (1016.3 mb)
[Sea-level pressure: 1014.7 mb]
Winds: from the W (260 degrees) at 12 MPH (10 knots; 5.1 m/s)
Visibility: 10 or more miles (16+ km)
Ceiling: 1600 feet AGL
Clouds: overcast cloud deck at 1600 feet AGL
Weather: FU  (smoke)

METAR text: KCCR 261353Z 24008KT 10SM FU OVC016 16/12 A3000 RMK AO2 SLP145 T01560117
Conditions at: KCCR (CONCORD , CA, US) observed 1353 UTC 26 September 2021
Temperature: 15.6°C (60°F)
Dewpoint: 11.7°C (53°F) [RH = 78%]
Pressure (altimeter): 30.00 inches Hg (1016.0 mb)
[Sea-level pressure: 1014.5 mb]
Winds: from the WSW (240 degrees) at 9 MPH (8 knots; 4.1 m/s)
Visibility: 10 or more miles (16+ km)
Ceiling: 1600 feet AGL
Clouds: overcast cloud deck at 1600 feet AGL
Weather: FU  (smoke)

METAR text: KCCR 261253Z AUTO 25010KT 10SM FU OVC015 16/11 A3000 RMK AO2 SLP144 T01560111 TSNO
Conditions at: KCCR (CONCORD , CA, US) observed 1253 UTC 26 September 2021
Temperature: 15.6°C (60°F)
Dewpoint: 11.1°C (52°F) [RH = 75%]
Pressure (altimeter): 30.00 inches Hg (1016.0 mb)
[Sea-level pressure: 1014.4 mb]
Winds: from the WSW (250 degrees) at 12 MPH (10 knots; 5.1 m/s)
Visibility: 10 or more miles (16+ km)
Ceiling: 1500 feet AGL
Clouds: overcast cloud deck at 1500 feet AGL
Weather: FU  (smoke)

METAR text: KCCR 261153Z AUTO 23007KT 10SM FU OVC016 16/11 A2999 RMK AO2 SLP141 T01560111 10156 20150 56003
Conditions at: KCCR (CONCORD , CA, US) observed 1153 UTC 26 September 2021
Temperature: 15.6°C (60°F)
Dewpoint: 11.1°C (52°F) [RH = 75%]
Pressure (altimeter): 29.99 inches Hg (1015.7 mb)
[Sea-level pressure: 1014.1 mb]
Winds: from the SW (230 degrees) at 8 MPH (7 knots; 3.6 m/s)
Visibility: 10 or more miles (16+ km)
Ceiling: 1600 feet AGL
Clouds: overcast cloud deck at 1600 feet AGL
Weather: FU  (smoke)

METAR text: KCCR 261053Z AUTO 25008KT 10SM FU OVC017 15/11 A2999 RMK AO2 SLP142 T01500111
Conditions at: KCCR (CONCORD , CA, US) observed 1053 UTC 26 September 2021
Temperature: 15.0°C (59°F)
Dewpoint: 11.1°C (52°F) [RH = 77%]
Pressure (altimeter): 29.99 inches Hg (1015.7 mb)
[Sea-level pressure: 1014.2 mb]
Winds: from the WSW (250 degrees) at 9 MPH (8 knots; 4.1 m/s)
Visibility: 10 or more miles (16+ km)
Ceiling: 1700 feet AGL
Clouds: overcast cloud deck at 1700 feet AGL
Weather: FU  (smoke)

METAR text: KCCR 260953Z AUTO 21006KT 10SM FU BKN017 15/11 A2999 RMK AO2 SLP141 T01500111
Conditions at: KCCR (CONCORD , CA, US) observed 0953 UTC 26 September 2021
Temperature: 15.0°C (59°F)
Dewpoint: 11.1°C (52°F) [RH = 77%]
Pressure (altimeter): 29.99 inches Hg (1015.7 mb)
[Sea-level pressure: 1014.1 mb]
Winds: from the SSW (210 degrees) at 7 MPH (6 knots; 3.1 m/s)
Visibility: 10 or more miles (16+ km)
Ceiling: 1700 feet AGL
Clouds: broken clouds at 1700 feet AGL
Weather: FU  (smoke)

METAR text: KCCR 260853Z AUTO 23011KT 10SM FU OVC017 16/11 A3000 RMK AO2 SLP144 T01560111 51004
Conditions at: KCCR (CONCORD , CA, US) observed 0853 UTC 26 September 2021
Temperature: 15.6°C (60°F)
Dewpoint: 11.1°C (52°F) [RH = 75%]
Pressure (altimeter): 30.00 inches Hg (1016.0 mb)
[Sea-level pressure: 1014.4 mb]
Winds: from the SW (230 degrees) at 13 MPH (11 knots; 5.7 m/s)
Visibility: 10 or more miles (16+ km)
Ceiling: 1700 feet AGL
Clouds: overcast cloud deck at 1700 feet AGL
Weather: FU  (smoke)

METAR text: KCCR 260753Z AUTO 25009KT 10SM FU BKN017 15/11 A2999 RMK AO2 SLP143 T01500111 402720144
Conditions at: KCCR (CONCORD , CA, US) observed 0753 UTC 26 September 2021
Temperature: 15.0°C (59°F)
Dewpoint: 11.1°C (52°F) [RH = 77%]
Pressure (altimeter): 29.99 inches Hg (1015.7 mb)
[Sea-level pressure: 1014.3 mb]
Winds: from the WSW (250 degrees) at 10 MPH (9 knots; 4.6 m/s)
Visibility: 10 or more miles (16+ km)
Ceiling: 1700 feet AGL
Clouds: broken clouds at 1700 feet AGL
Weather: FU  (smoke)

METAR text: KCCR 260710Z AUTO 22004KT 10SM FU BKN018 15/11 A2999 RMK AO2 T01500111
Conditions at: KCCR (CONCORD , CA, US) observed 0710 UTC 26 September 2021
Temperature: 15.0°C (59°F)
Dewpoint: 11.1°C (52°F) [RH = 77%]
Pressure (altimeter): 29.99 inches Hg (1015.7 mb)
Winds: from the SW (220 degrees) at 5 MPH (4 knots; 2.1 m/s)
Visibility: 10 or more miles (16+ km)
Ceiling: 1800 feet AGL
Clouds: broken clouds at 1800 feet AGL
Weather: FU  (smoke)

METAR text: KCCR 260653Z AUTO 23005KT 10SM FU SCT018 15/11 A2999 RMK AO2 SLP141 T01500111
Conditions at: KCCR (CONCORD , CA, US) observed 0653 UTC 26 September 2021
Temperature: 15.0°C (59°F)
Dewpoint: 11.1°C (52°F) [RH = 77%]
Pressure (altimeter): 29.99 inches Hg (1015.7 mb)
[Sea-level pressure: 1014.1 mb]
Winds: from the SW (230 degrees) at 6 MPH (5 knots; 2.6 m/s)
Visibility: 10 or more miles (16+ km)
Ceiling: at least 12,000 feet AGL
Clouds: scattered clouds at 1800 feet AGL
Weather: FU  (smoke)

METAR text: KCCR 260553Z 24012KT 10SM FU CLR 16/11 A2998 RMK AO2 SLP140 T01560111 10250 20156 53017
Conditions at: KCCR (CONCORD , CA, US) observed 0553 UTC 26 September 2021
Temperature: 15.6°C (60°F)
Dewpoint: 11.1°C (52°F) [RH = 75%]
Pressure (altimeter): 29.98 inches Hg (1015.3 mb)
[Sea-level pressure: 1014.0 mb]
Winds: from the WSW (240 degrees) at 14 MPH (12 knots; 6.2 m/s)
Visibility: 10 or more miles (16+ km)
Ceiling: at least 12,000 feet AGL
Clouds: sky clear below 12,000 feet AGL
Weather: FU  (smoke)

METAR text: KCCR 260453Z 26011KT 10SM FU CLR 16/11 A2997 RMK AO2 SLP133 T01610111
Conditions at: KCCR (CONCORD , CA, US) observed 0453 UTC 26 September 2021
Temperature: 16.1°C (61°F)
Dewpoint: 11.1°C (52°F) [RH = 72%]
Pressure (altimeter): 29.97 inches Hg (1015.0 mb)
[Sea-level pressure: 1013.3 mb]
Winds: from the W (260 degrees) at 13 MPH (11 knots; 5.7 m/s)
Visibility: 10 or more miles (16+ km)
Ceiling: at least 12,000 feet AGL
Clouds: sky clear below 12,000 feet AGL
Weather: FU  (smoke)

METAR text: KCCR 260353Z 23009KT 10SM FU CLR 17/11 A2995 RMK AO2 SLP128 T01720111
Conditions at: KCCR (CONCORD , CA, US) observed 0353 UTC 26 September 2021
Temperature: 17.2°C (63°F)
Dewpoint: 11.1°C (52°F) [RH = 67%]
Pressure (altimeter): 29.95 inches Hg (1014.3 mb)
[Sea-level pressure: 1012.8 mb]
Winds: from the SW (230 degrees) at 10 MPH (9 knots; 4.6 m/s)
Visibility: 10 or more miles (16+ km)
Ceiling: at least 12,000 feet AGL
Clouds: sky clear below 12,000 feet AGL
Weather: FU  (smoke)

METAR text: KCCR 260253Z 21010KT 10SM FU CLR 18/11 A2993 RMK AO2 SLP123 T01830106 53008
Conditions at: KCCR (CONCORD , CA, US) observed 0253 UTC 26 September 2021
Temperature: 18.3°C (65°F)
Dewpoint: 10.6°C (51°F) [RH = 61%]
Pressure (altimeter): 29.93 inches Hg (1013.6 mb)
[Sea-level pressure: 1012.3 mb]
Winds: from the SSW (210 degrees) at 12 MPH (10 knots; 5.1 m/s)
Visibility: 10 or more miles (16+ km)
Ceiling: at least 12,000 feet AGL
Clouds: sky clear below 12,000 feet AGL
Weather: FU  (smoke)

METAR text: KCCR 260153Z 27008KT 10SM FU CLR 21/09 A2992 RMK AO2 SLP119 T02060089
Conditions at: KCCR (CONCORD , CA, US) observed 0153 UTC 26 September 2021
Temperature: 20.6°C (69°F)
Dewpoint: 8.9°C (48°F) [RH = 47%]
Pressure (altimeter): 29.92 inches Hg (1013.3 mb)
[Sea-level pressure: 1011.9 mb]
Winds: from the W (270 degrees) at 9 MPH (8 knots; 4.1 m/s)
Visibility: 10 or more miles (16+ km)
Ceiling: at least 12,000 feet AGL
Clouds: sky clear below 12,000 feet AGL
Weather: FU  (smoke)

METAR text: KCCR 260053Z 28009KT 10SM FU CLR 23/09 A2991 RMK AO2 SLP114 T02330089
Conditions at: KCCR (CONCORD , CA, US) observed 0053 UTC 26 September 2021
Temperature: 23.3°C (74°F)
Dewpoint: 8.9°C (48°F) [RH = 40%]
Pressure (altimeter): 29.91 inches Hg (1013.0 mb)
[Sea-level pressure: 1011.4 mb]
Winds: from the W (280 degrees) at 10 MPH (9 knots; 4.6 m/s)
Visibility: 10 or more miles (16+ km)
Ceiling: at least 12,000 feet AGL
Clouds: sky clear below 12,000 feet AGL
Weather: FU  (smoke)

METAR text: KCCR 252353Z 29010KT 10SM FU CLR 25/09 A2991 RMK AO2 SLP114 T02500094 10272 20200 55009
Conditions at: KCCR (CONCORD , CA, US) observed 2353 UTC 25 September 2021
Temperature: 25.0°C (77°F)
Dewpoint: 9.4°C (49°F) [RH = 37%]
Pressure (altimeter): 29.91 inches Hg (1013.0 mb)
[Sea-level pressure: 1011.4 mb]
Winds: from the WNW (290 degrees) at 12 MPH (10 knots; 5.1 m/s)
Visibility: 10 or more miles (16+ km)
Ceiling: at least 12,000 feet AGL
Clouds: sky clear below 12,000 feet AGL
Weather: FU  (smoke)

METAR text: KCCR 252253Z 28014KT 9SM FU CLR 27/08 A2991 RMK AO2 SLP114 T02670083
Conditions at: KCCR (CONCORD , CA, US) observed 2253 UTC 25 September 2021
Temperature: 26.7°C (80°F)
Dewpoint: 8.3°C (47°F) [RH = 31%]
Pressure (altimeter): 29.91 inches Hg (1013.0 mb)
[Sea-level pressure: 1011.4 mb]
Winds: from the W (280 degrees) at 16 MPH (14 knots; 7.2 m/s)
Visibility: 9 miles (14 km)
Ceiling: at least 12,000 feet AGL
Clouds: sky clear below 12,000 feet AGL
Weather: FU  (smoke)

METAR text: KCCR 252153Z 28012KT 10SM FU CLR 27/11 A2991 RMK AO2 SLP116 T02720106
Conditions at: KCCR (CONCORD , CA, US) observed 2153 UTC 25 September 2021
Temperature: 27.2°C (81°F)
Dewpoint: 10.6°C (51°F) [RH = 35%]
Pressure (altimeter): 29.91 inches Hg (1013.0 mb)
[Sea-level pressure: 1011.6 mb]
Winds: from the W (280 degrees) at 14 MPH (12 knots; 6.2 m/s)
Visibility: 10 or more miles (16+ km)
Ceiling: at least 12,000 feet AGL
Clouds: sky clear below 12,000 feet AGL
Weather: FU  (smoke)

METAR text: KCCR 252053Z 30011KT 10SM FU CLR 26/12 A2994 RMK AO2 SLP123 T02610117 58019
Conditions at: KCCR (CONCORD , CA, US) observed 2053 UTC 25 September 2021
Temperature: 26.1°C (79°F)
Dewpoint: 11.7°C (53°F) [RH = 41%]
Pressure (altimeter): 29.94 inches Hg (1014.0 mb)
[Sea-level pressure: 1012.3 mb]
Winds: from the WNW (300 degrees) at 13 MPH (11 knots; 5.7 m/s)
Visibility: 10 or more miles (16+ km)
Ceiling: at least 12,000 feet AGL
Clouds: sky clear below 12,000 feet AGL
Weather: FU  (smoke)

METAR text: KCCR 251953Z 29010KT 9SM FU CLR 24/13 A2996 RMK AO2 SLP130 T02390128
Conditions at: KCCR (CONCORD , CA, US) observed 1953 UTC 25 September 2021
Temperature: 23.9°C (75°F)
Dewpoint: 12.8°C (55°F) [RH = 50%]
Pressure (altimeter): 29.96 inches Hg (1014.6 mb)
[Sea-level pressure: 1013.0 mb]
Winds: from the WNW (290 degrees) at 12 MPH (10 knots; 5.1 m/s)
Visibility: 9 miles (14 km)
Ceiling: at least 12,000 feet AGL
Clouds: sky clear below 12,000 feet AGL
Weather: FU  (smoke)

METAR text: KCCR 251853Z 30011KT 10SM CLR 22/13 A2997 RMK AO2 SLP136 T02170133
Conditions at: KCCR (CONCORD , CA, US) observed 1853 UTC 25 September 2021
Temperature: 21.7°C (71°F)
Dewpoint: 13.3°C (56°F) [RH = 59%]
Pressure (altimeter): 29.97 inches Hg (1015.0 mb)
[Sea-level pressure: 1013.6 mb]
Winds: from the WNW (300 degrees) at 13 MPH (11 knots; 5.7 m/s)
Visibility: 10 or more miles (16+ km)
Ceiling: at least 12,000 feet AGL
Clouds: sky clear below 12,000 feet AGL
Weather: no significant weather observed at this time

METAR text: KCCR 251753Z 30009KT 10SM CLR 20/13 A2999 RMK AO2 SLP142 T02000128 10200 20144 50004
Conditions at: KCCR (CONCORD , CA, US) observed 1753 UTC 25 September 2021
Temperature: 20.0°C (68°F)
Dewpoint: 12.8°C (55°F) [RH = 63%]
Pressure (altimeter): 29.99 inches Hg (1015.7 mb)
[Sea-level pressure: 1014.2 mb]
Winds: from the WNW (300 degrees) at 10 MPH (9 knots; 4.6 m/s)
Visibility: 10 or more miles (16+ km)
Ceiling: at least 12,000 feet AGL
Clouds: sky clear below 12,000 feet AGL
Weather: no significant weather observed at this time

METAR text: KCCR 251653Z 27007KT 10SM CLR 19/13 A2999 RMK AO2 SLP143 T01890128
Conditions at: KCCR (CONCORD , CA, US) observed 1653 UTC 25 September 2021
Temperature: 18.9°C (66°F)
Dewpoint: 12.8°C (55°F) [RH = 68%]
Pressure (altimeter): 29.99 inches Hg (1015.7 mb)
[Sea-level pressure: 1014.3 mb]
Winds: from the W (270 degrees) at 8 MPH (7 knots; 3.6 m/s)
Visibility: 10 or more miles (16+ km)
Ceiling: at least 12,000 feet AGL
Clouds: sky clear below 12,000 feet AGL
Weather: no significant weather observed at this time

METAR text: KCCR 251553Z 00000KT 10SM CLR 17/13 A2998 RMK AO2 SLP140 T01670128
Conditions at: KCCR (CONCORD , CA, US) observed 1553 UTC 25 September 2021
Temperature: 16.7°C (62°F)
Dewpoint: 12.8°C (55°F) [RH = 78%]
Pressure (altimeter): 29.98 inches Hg (1015.3 mb)
[Sea-level pressure: 1014.0 mb]
Winds: calm
Visibility: 10 or more miles (16+ km)
Ceiling: at least 12,000 feet AGL
Clouds: sky clear below 12,000 feet AGL
Weather: no significant weather observed at this time

METAR text: KCCR 251453Z 26006KT 9SM CLR 15/13 A2998 RMK AO2 SLP138 T01500128 53007
Conditions at: KCCR (CONCORD , CA, US) observed 1453 UTC 25 September 2021
Temperature: 15.0°C (59°F)
Dewpoint: 12.8°C (55°F) [RH = 87%]
Pressure (altimeter): 29.98 inches Hg (1015.3 mb)
[Sea-level pressure: 1013.8 mb]
Winds: from the W (260 degrees) at 7 MPH (6 knots; 3.1 m/s)
Visibility: 9 miles (14 km)
Ceiling: at least 12,000 feet AGL
Clouds: sky clear below 12,000 feet AGL
Weather: no significant weather observed at this time

METAR text: KCCR 251353Z 25005KT 10SM FU CLR 15/12 A2997 RMK AO2 SLP136 T01500122
Conditions at: KCCR (CONCORD , CA, US) observed 1353 UTC 25 September 2021
Temperature: 15.0°C (59°F)
Dewpoint: 12.2°C (54°F) [RH = 83%]
Pressure (altimeter): 29.97 inches Hg (1015.0 mb)
[Sea-level pressure: 1013.6 mb]
Winds: from the WSW (250 degrees) at 6 MPH (5 knots; 2.6 m/s)
Visibility: 10 or more miles (16+ km)
Ceiling: at least 12,000 feet AGL
Clouds: sky clear below 12,000 feet AGL
Weather: FU  (smoke)

METAR text: KCCR 251253Z AUTO 28004KT 10SM FU CLR 14/12 A2996 RMK AO2 SLP132 T01440122
Conditions at: KCCR (CONCORD , CA, US) observed 1253 UTC 25 September 2021
Temperature: 14.4°C (58°F)
Dewpoint: 12.2°C (54°F) [RH = 87%]
Pressure (altimeter): 29.96 inches Hg (1014.6 mb)
[Sea-level pressure: 1013.2 mb]
Winds: from the W (280 degrees) at 5 MPH (4 knots; 2.1 m/s)
Visibility: 10 or more miles (16+ km)
Ceiling: at least 12,000 feet AGL
Clouds: sky clear below 12,000 feet AGL
Weather: FU  (smoke)

METAR text: KCCR 251153Z AUTO 27007KT 10SM FU CLR 15/12 A2996 RMK AO2 SLP131 T01500122 10178 20150 50003
Conditions at: KCCR (CONCORD , CA, US) observed 1153 UTC 25 September 2021
Temperature: 15.0°C (59°F)
Dewpoint: 12.2°C (54°F) [RH = 83%]
Pressure (altimeter): 29.96 inches Hg (1014.6 mb)
[Sea-level pressure: 1013.1 mb]
Winds: from the W (270 degrees) at 8 MPH (7 knots; 3.6 m/s)
Visibility: 10 or more miles (16+ km)
Ceiling: at least 12,000 feet AGL
Clouds: sky clear below 12,000 feet AGL
Weather: FU  (smoke)

METAR text: KCCR 251053Z AUTO 28008KT 10SM FU CLR 16/12 A2996 RMK AO2 SLP132 T01560122
Conditions at: KCCR (CONCORD , CA, US) observed 1053 UTC 25 September 2021
Temperature: 15.6°C (60°F)
Dewpoint: 12.2°C (54°F) [RH = 80%]
Pressure (altimeter): 29.96 inches Hg (1014.6 mb)
[Sea-level pressure: 1013.2 mb]
Winds: from the W (280 degrees) at 9 MPH (8 knots; 4.1 m/s)
Visibility: 10 or more miles (16+ km)
Ceiling: at least 12,000 feet AGL
Clouds: sky clear below 12,000 feet AGL
Weather: FU  (smoke)

METAR text: KCCR 250953Z AUTO 28005KT 10SM FU CLR 16/12 A2996 RMK AO2 SLP130 T01610117
Conditions at: KCCR (CONCORD , CA, US) observed 0953 UTC 25 September 2021
Temperature: 16.1°C (61°F)
Dewpoint: 11.7°C (53°F) [RH = 75%]
Pressure (altimeter): 29.96 inches Hg (1014.6 mb)
[Sea-level pressure: 1013.0 mb]
Winds: from the W (280 degrees) at 6 MPH (5 knots; 2.6 m/s)
Visibility: 10 or more miles (16+ km)
Ceiling: at least 12,000 feet AGL
Clouds: sky clear below 12,000 feet AGL
Weather: FU  (smoke)

METAR text: KCCR 250853Z AUTO 34005KT 10SM FU CLR 16/12 A2995 RMK AO2 SLP128 T01560122 51012
Conditions at: KCCR (CONCORD , CA, US) observed 0853 UTC 25 September 2021
Temperature: 15.6°C (60°F)
Dewpoint: 12.2°C (54°F) [RH = 80%]
Pressure (altimeter): 29.95 inches Hg (1014.3 mb)
[Sea-level pressure: 1012.8 mb]
Winds: from the NNW (340 degrees) at 6 MPH (5 knots; 2.6 m/s)
Visibility: 10 or more miles (16+ km)
Ceiling: at least 12,000 feet AGL
Clouds: sky clear below 12,000 feet AGL
Weather: FU  (smoke)

METAR text: KCCR 250753Z AUTO 35003KT 10SM FU CLR 16/12 A2994 RMK AO2 SLP125 T01610117 403440156
Conditions at: KCCR (CONCORD , CA, US) observed 0753 UTC 25 September 2021
Temperature: 16.1°C (61°F)
Dewpoint: 11.7°C (53°F) [RH = 75%]
Pressure (altimeter): 29.94 inches Hg (1014.0 mb)
[Sea-level pressure: 1012.5 mb]
Winds: from the N (350 degrees) at 3 MPH (3 knots; 1.5 m/s)
Visibility: 10 or more miles (16+ km)
Ceiling: at least 12,000 feet AGL
Clouds: sky clear below 12,000 feet AGL
Weather: FU  (smoke)

METAR text: KCCR 250653Z AUTO 36005KT 10SM FU CLR 17/12 A2993 RMK AO2 SLP121 T01670122
Conditions at: KCCR (CONCORD , CA, US) observed 0653 UTC 25 September 2021
Temperature: 16.7°C (62°F)
Dewpoint: 12.2°C (54°F) [RH = 75%]
Pressure (altimeter): 29.93 inches Hg (1013.6 mb)
[Sea-level pressure: 1012.1 mb]
Winds: from the N (360 degrees) at 6 MPH (5 knots; 2.6 m/s)
Visibility: 10 or more miles (16+ km)
Ceiling: at least 12,000 feet AGL
Clouds: sky clear below 12,000 feet AGL
Weather: FU  (smoke)